Time;durP1;ratioP1;P1;durP2;ratioP2;P2;SDS_P1;SDS_P2;PMS_P1;PMS_P2;Temp;Humidity;BMP_temperature;BMP_pressure;BME280_temperature;BME280_humidity;BME280_pressure;Samples;Min_cycle;Max_cycle;Signal;HPM_P1;HPM_P2
2021/03/11 00:00:28;;;;;;;11.35;6.13;;;6.80;85.70;;;;;;5095472;28;20123;-73
2021/03/11 00:02:54;;;;;;;11.85;6.20;;;6.80;85.70;;;;;;5095634;28;20093;-73
2021/03/11 00:05:20;;;;;;;10.70;5.70;;;6.90;85.70;;;;;;5094779;28;20036;-73
2021/03/11 00:07:46;;;;;;;10.20;5.47;;;6.80;85.60;;;;;;5094511;28;20052;-73
2021/03/11 00:10:12;;;;;;;10.60;5.07;;;6.90;85.70;;;;;;5095059;28;20042;-73
2021/03/11 00:12:39;;;;;;;9.98;5.65;;;6.90;85.70;;;;;;5094787;28;20097;-73
2021/03/11 00:15:09;;;;;;;10.23;5.32;;;6.90;85.70;;;;;;5076913;28;20123;-73
2021/03/11 00:17:34;;;;;;;8.75;5.13;;;6.90;85.60;;;;;;5095160;28;20497;-74
2021/03/11 00:20:01;;;;;;;9.57;5.35;;;6.90;85.70;;;;;;5075651;28;20040;-73
2021/03/11 00:22:27;;;;;;;9.35;5.40;;;6.90;85.60;;;;;;5094872;28;20438;-74
2021/03/11 00:24:52;;;;;;;9.80;5.43;;;7.00;85.70;;;;;;5095250;28;20035;-73
2021/03/11 00:27:18;;;;;;;8.35;5.00;;;7.00;85.60;;;;;;5094688;28;20478;-73
2021/03/11 00:29:44;;;;;;;8.45;4.75;;;7.10;85.70;;;;;;5094417;28;20161;-73
2021/03/11 00:32:10;;;;;;;9.23;5.22;;;7.00;85.70;;;;;;5076570;28;20039;-74
2021/03/11 00:34:35;;;;;;;9.23;5.22;;;7.00;85.80;;;;;;5095000;28;20044;-72
2021/03/11 00:37:01;;;;;;;9.88;4.88;;;7.00;85.80;;;;;;5094550;28;20036;-74
2021/03/11 00:39:27;;;;;;;7.30;4.20;;;7.00;85.70;;;;;;5094337;28;20044;-73
2021/03/11 00:41:53;;;;;;;10.38;4.95;;;7.00;85.70;;;;;;5075714;28;20055;-73
2021/03/11 00:44:18;;;;;;;8.60;4.93;;;7.00;85.70;;;;;;5076279;28;20077;-73
2021/03/11 00:46:44;;;;;;;10.80;5.70;;;7.00;85.70;;;;;;5094489;28;20036;-73
2021/03/11 00:49:10;;;;;;;8.88;5.25;;;7.10;85.80;;;;;;5094476;28;20063;-73
2021/03/11 00:51:35;;;;;;;9.88;5.25;;;7.10;85.80;;;;;;5094149;28;20098;-73
2021/03/11 00:54:01;;;;;;;10.25;4.93;;;7.10;85.80;;;;;;5072829;28;20033;-73
2021/03/11 00:56:27;;;;;;;9.23;5.00;;;7.10;85.80;;;;;;5093648;28;20043;-73
2021/03/11 00:58:52;;;;;;;8.70;4.70;;;7.00;85.70;;;;;;5094198;28;20048;-74
2021/03/11 01:01:18;;;;;;;9.40;4.68;;;7.20;85.80;;;;;;5073466;28;20495;-73
2021/03/11 01:03:44;;;;;;;9.98;5.28;;;7.10;85.70;;;;;;5093882;28;20072;-73
2021/03/11 01:06:10;;;;;;;9.18;4.78;;;7.20;85.70;;;;;;5094049;28;20074;-73
2021/03/11 01:08:35;;;;;;;9.10;5.00;;;7.20;85.70;;;;;;5058248;28;20040;-74
2021/03/11 01:11:02;;;;;;;9.40;5.53;;;7.20;85.70;;;;;;5094238;28;20182;-73
2021/03/11 01:13:27;;;;;;;9.80;5.60;;;7.20;85.70;;;;;;5094224;28;20397;-72
2021/03/11 01:15:53;;;;;;;9.57;5.70;;;7.20;85.70;;;;;;5094030;28;20032;-73
2021/03/11 01:18:19;;;;;;;8.73;5.07;;;7.30;85.70;;;;;;5058164;28;20045;-74
2021/03/11 01:20:45;;;;;;;9.00;5.05;;;7.30;85.70;;;;;;5094531;28;20126;-73
2021/03/11 01:23:10;;;;;;;8.02;4.72;;;7.40;85.70;;;;;;5076005;28;20428;-73
2021/03/11 01:25:36;;;;;;;7.38;4.68;;;7.30;86.30;;;;;;5093669;28;20035;-72
2021/03/11 01:28:02;;;;;;;8.40;4.88;;;7.40;85.70;;;;;;5093845;28;20044;-73
2021/03/11 01:30:28;;;;;;;10.65;6.15;;;7.40;85.70;;;;;;5093733;28;20136;-72
2021/03/11 01:32:54;;;;;;;10.93;6.32;;;7.40;86.40;;;;;;5075800;28;20454;-73
2021/03/11 01:35:19;;;;;;;9.75;5.90;;;7.40;85.80;;;;;;5095372;28;20036;-72
2021/03/11 01:37:45;;;;;;;10.63;6.13;;;7.40;85.90;;;;;;5093786;28;20063;-73
2021/03/11 01:40:11;;;;;;;9.27;5.25;;;7.40;86.00;;;;;;5074997;28;20067;-74
2021/03/11 01:42:37;;;;;;;8.85;5.28;;;7.40;86.00;;;;;;5093489;28;20043;-73
2021/03/11 01:45:04;;;;;;;9.75;6.22;;;7.40;86.10;;;;;;5093909;28;20040;-74
2021/03/11 01:47:30;;;;;;;8.00;4.90;;;7.30;86.20;;;;;;5091746;28;20051;-74
2021/03/11 01:49:56;;;;;;;9.57;5.57;;;7.40;86.30;;;;;;5094329;28;20040;-74
2021/03/11 01:52:22;;;;;;;9.18;5.47;;;7.40;86.30;;;;;;5075882;28;20036;-74
2021/03/11 01:54:48;;;;;;;8.35;5.22;;;7.40;86.40;;;;;;5094154;28;20371;-74
2021/03/11 01:57:14;;;;;;;8.82;5.10;;;7.40;86.40;;;;;;5076204;28;20038;-74
2021/03/11 01:59:40;;;;;;;8.55;4.50;;;7.40;86.50;;;;;;5093851;28;20520;-74
2021/03/11 02:02:06;;;;;;;7.97;4.78;;;7.40;86.50;;;;;;5093724;28;20032;-74
2021/03/11 02:04:31;;;;;;;7.68;4.50;;;7.40;86.50;;;;;;5093246;28;20127;-74
2021/03/11 02:06:58;;;;;;;6.95;4.25;;;7.50;86.50;;;;;;5091715;28;20051;-74
2021/03/11 02:09:24;;;;;;;7.50;4.55;;;7.50;86.50;;;;;;5093612;28;20039;-73
2021/03/11 02:12:02;;;;;;;9.02;5.00;;;7.50;86.50;;;;;;5092847;28;20044;-73
2021/03/11 02:14:45;;;;;;;7.75;4.88;;;7.50;86.70;;;;;;5091128;28;20040;-73
2021/03/11 02:17:11;;;;;;;8.00;4.75;;;7.50;86.60;;;;;;5056455;28;20072;-73
2021/03/11 02:20:10;;;;;;;8.65;5.10;;;7.50;86.60;;;;;;5058992;28;20040;-74
2021/03/11 02:23:07;;;;;;;8.80;5.35;;;7.60;86.80;;;;;;5092873;28;20097;-73
2021/03/11 02:25:44;;;;;;;8.85;5.03;;;7.50;86.80;;;;;;5093779;28;20047;-74
2021/03/11 02:28:24;;;;;;;9.48;5.90;;;7.60;86.80;;;;;;5093602;28;20396;-73
2021/03/11 02:30:54;;;;;;;8.32;5.03;;;7.60;86.90;;;;;;5093482;28;20040;-73
2021/03/11 02:33:22;;;;;;;8.30;4.85;;;7.60;86.90;;;;;;5093495;28;20419;-73
2021/03/11 02:35:53;;;;;;;8.32;4.40;;;7.60;87.00;;;;;;5093236;28;20073;-73
2021/03/11 02:38:20;;;;;;;;;;;7.50;87.00;;;;;;5094494;28;20063;-73
2021/03/11 02:40:48;;;;;;;8.00;5.00;;;7.60;87.10;;;;;;5092736;28;19960;-73
2021/03/11 02:43:15;;;;;;;7.40;4.47;;;7.60;87.10;;;;;;5071850;28;20491;-74
2021/03/11 02:45:42;;;;;;;8.65;4.80;;;7.50;87.30;;;;;;5071660;28;20108;-72
2021/03/11 02:48:10;;;;;;;8.98;5.05;;;7.60;87.30;;;;;;5093025;28;20121;-73
2021/03/11 02:50:38;;;;;;;7.45;4.18;;;7.60;87.50;;;;;;5092398;28;20032;-73
2021/03/11 02:53:07;;;;;;;7.60;4.80;;;7.60;87.50;;;;;;5092640;28;20040;-73
2021/03/11 02:55:35;;;;;;;7.82;4.65;;;7.70;87.70;;;;;;5092499;28;20393;-73
2021/03/11 02:58:01;;;;;;;6.72;4.35;;;7.60;87.80;;;;;;5093469;28;20044;-73
2021/03/11 03:00:28;;;;;;;6.60;3.83;;;7.60;87.80;;;;;;5092496;28;20050;-73
2021/03/11 03:02:55;;;;;;;6.63;3.88;;;7.60;87.80;;;;;;5092357;28;20044;-72
2021/03/11 03:05:25;;;;;;;6.82;4.50;;;7.60;87.80;;;;;;5092359;28;20650;-72
2021/03/11 03:07:51;;;;;;;6.20;3.92;;;7.60;87.80;;;;;;5092001;28;20054;-72
2021/03/11 03:10:21;;;;;;;6.78;4.00;;;7.70;87.90;;;;;;5092721;28;20036;-73
2021/03/11 03:12:49;;;;;;;6.80;3.80;;;7.70;87.90;;;;;;5089656;28;20037;-73
2021/03/11 03:15:18;;;;;;;6.00;3.78;;;7.70;87.90;;;;;;5092162;28;20495;-73
2021/03/11 03:17:46;;;;;;;6.35;3.85;;;7.70;88.00;;;;;;5092769;28;20439;-73
2021/03/11 03:20:13;;;;;;;7.10;4.72;;;7.70;88.00;;;;;;5092717;28;20079;-73
2021/03/11 03:22:39;;;;;;;6.70;4.00;;;7.80;88.10;;;;;;5092148;28;20123;-73
2021/03/11 03:25:09;;;;;;;5.53;3.70;;;7.80;88.10;;;;;;5092010;28;20177;-72
2021/03/11 03:27:35;;;;;;;7.55;4.50;;;7.90;88.10;;;;;;5041332;28;20135;-73
2021/03/11 03:30:05;;;;;;;6.35;4.07;;;7.90;88.20;;;;;;5070380;28;20041;-73
2021/03/11 03:32:31;;;;;;;6.72;4.32;;;7.90;88.10;;;;;;5091975;28;20036;-73
2021/03/11 03:34:56;;;;;;;6.22;4.13;;;8.00;88.10;;;;;;5092016;28;20033;-73
2021/03/11 03:37:22;;;;;;;6.75;4.05;;;8.00;88.10;;;;;;5092163;28;20083;-73
2021/03/11 03:39:48;;;;;;;7.40;4.03;;;8.10;88.20;;;;;;5091864;28;20444;-73
2021/03/11 03:42:14;;;;;;;6.43;4.10;;;8.00;88.30;;;;;;5091685;28;20447;-72
2021/03/11 03:44:43;;;;;;;5.63;3.50;;;8.00;88.40;;;;;;5092040;28;20044;-73
2021/03/11 03:47:11;;;;;;;6.93;4.50;;;8.00;89.10;;;;;;5091979;28;20046;-73
2021/03/11 03:49:40;;;;;;;6.75;4.18;;;8.00;88.70;;;;;;5091647;28;20433;-73
2021/03/11 03:52:07;;;;;;;7.65;4.18;;;8.00;88.70;;;;;;5091500;28;20035;-73
2021/03/11 03:54:39;;;;;;;6.43;3.72;;;8.10;89.40;;;;;;5091911;28;20078;-73
2021/03/11 03:57:13;;;;;;;6.25;3.85;;;8.00;88.70;;;;;;5091839;28;20043;-73
2021/03/11 03:59:41;;;;;;;6.47;3.85;;;8.00;88.90;;;;;;5073739;28;20036;-73
2021/03/11 04:02:10;;;;;;;6.90;3.85;;;8.10;89.00;;;;;;5092200;28;20616;-73
2021/03/11 04:04:39;;;;;;;4.82;3.22;;;8.10;89.00;;;;;;5073806;28;20040;-72
2021/03/11 04:07:08;;;;;;;6.30;3.78;;;8.10;89.10;;;;;;5092252;28;20054;-74
2021/03/11 04:09:35;;;;;;;6.28;3.97;;;8.10;89.10;;;;;;5092545;28;20440;-74
2021/03/11 04:12:02;;;;;;;6.82;3.88;;;8.10;89.10;;;;;;5092887;28;20047;-73
2021/03/11 04:14:29;;;;;;;6.50;4.10;;;8.10;89.20;;;;;;5075093;28;20052;-73
2021/03/11 04:16:56;;;;;;;5.07;3.30;;;8.20;89.20;;;;;;5092669;28;20052;-73
2021/03/11 04:19:23;;;;;;;5.43;3.30;;;8.20;89.30;;;;;;5093166;28;20040;-73
2021/03/11 04:21:50;;;;;;;5.22;3.20;;;8.20;89.30;;;;;;5092158;28;20151;-73
2021/03/11 04:24:16;;;;;;;6.28;3.63;;;8.20;89.30;;;;;;5092534;28;20043;-73
2021/03/11 04:26:42;;;;;;;6.40;3.60;;;8.20;89.40;;;;;;5091978;28;20070;-73
2021/03/11 04:29:08;;;;;;;6.25;3.75;;;8.20;89.40;;;;;;5093670;28;20040;-74
2021/03/11 04:31:35;;;;;;;9.52;4.22;;;8.30;89.60;;;;;;5095377;28;20035;-73
2021/03/11 04:34:01;;;;;;;6.22;3.92;;;8.30;89.60;;;;;;5095718;28;20131;-73
2021/03/11 04:36:28;;;;;;;6.85;3.70;;;8.30;89.60;;;;;;5095695;28;20036;-74
2021/03/11 04:38:54;;;;;;;6.53;3.50;;;8.30;89.60;;;;;;5076181;28;20047;-73
2021/03/11 04:41:21;;;;;;;5.55;3.15;;;8.40;89.60;;;;;;5095440;28;20119;-74
2021/03/11 04:43:48;;;;;;;6.15;3.70;;;8.40;89.60;;;;;;5075996;28;20375;-73
2021/03/11 04:46:17;;;;;;;5.97;3.78;;;8.40;89.60;;;;;;5043057;28;20379;-73
2021/03/11 04:48:44;;;;;;;5.68;3.38;;;8.40;89.60;;;;;;5094649;28;20032;-73
2021/03/11 04:51:13;;;;;;;6.60;4.05;;;8.50;89.60;;;;;;5095071;28;20044;-73
2021/03/11 04:53:39;;;;;;;6.55;3.75;;;8.50;89.60;;;;;;5095182;28;20040;-73
2021/03/11 04:56:09;;;;;;;7.30;4.65;;;8.60;89.60;;;;;;5060356;28;20186;-73
2021/03/11 04:58:37;;;;;;;8.65;4.90;;;8.60;89.60;;;;;;5094355;28;20119;-74
2021/03/11 05:01:08;;;;;;;6.85;4.55;;;8.60;89.50;;;;;;5094536;28;20108;-74
2021/03/11 05:03:43;;;;;;;6.13;3.88;;;8.60;89.50;;;;;;5094775;28;20036;-74
2021/03/11 05:06:09;;;;;;;8.18;4.22;;;8.70;89.50;;;;;;5094593;28;20040;-73
2021/03/11 05:08:34;;;;;;;6.65;4.15;;;8.70;89.50;;;;;;5095181;28;20044;-73
2021/03/11 05:11:00;;;;;;;6.35;3.97;;;8.80;89.50;;;;;;5094440;28;20058;-73
2021/03/11 05:13:30;;;;;;;6.38;4.00;;;8.80;89.40;;;;;;5094962;28;20032;-73
2021/03/11 05:15:57;;;;;;;7.82;4.45;;;8.80;89.40;;;;;;5094890;28;20040;-74
2021/03/11 05:18:23;;;;;;;8.05;5.10;;;8.80;89.40;;;;;;5093422;28;20047;-73
2021/03/11 05:20:48;;;;;;;8.90;4.85;;;8.90;89.50;;;;;;5094796;28;20484;-72
2021/03/11 05:23:14;;;;;;;8.25;4.97;;;8.90;89.60;;;;;;5094146;28;20112;-73
2021/03/11 05:25:40;;;;;;;6.80;4.13;;;8.90;89.40;;;;;;5076604;28;20497;-74
2021/03/11 05:28:06;;;;;;;6.88;4.32;;;8.90;89.40;;;;;;5094868;28;20040;-73
2021/03/11 05:30:32;;;;;;;7.28;4.35;;;9.00;89.40;;;;;;5074586;28;20048;-73
2021/03/11 05:32:58;;;;;;;7.30;4.35;;;9.00;89.50;;;;;;5094797;28;20543;-73
2021/03/11 05:35:23;;;;;;;7.13;4.28;;;9.00;89.40;;;;;;5094508;28;20044;-73
2021/03/11 05:37:49;;;;;;;8.45;4.65;;;9.10;89.40;;;;;;5094589;28;20120;-73
2021/03/11 05:40:15;;;;;;;9.70;5.55;;;9.10;89.40;;;;;;5095264;28;20066;-74
2021/03/11 05:42:45;;;;;;;8.23;5.20;;;9.10;89.50;;;;;;5094218;28;20040;-73
2021/03/11 05:45:11;;;;;;;8.50;5.05;;;9.20;89.40;;;;;;5094653;28;20044;-74
2021/03/11 05:47:38;;;;;;;6.70;4.22;;;9.10;89.40;;;;;;5076107;28;20058;-74
2021/03/11 05:50:06;;;;;;;6.25;4.35;;;9.20;89.40;;;;;;5095216;28;20093;-73
2021/03/11 05:52:31;;;;;;;7.18;4.38;;;9.20;89.60;;;;;;5094868;28;20485;-74
2021/03/11 05:54:59;;;;;;;7.35;4.43;;;9.10;89.50;;;;;;5094504;28;20028;-74
2021/03/11 05:57:25;;;;;;;8.57;5.13;;;9.20;89.60;;;;;;5094049;28;20086;-73
2021/03/11 05:59:55;;;;;;;7.55;4.53;;;9.20;89.80;;;;;;5093995;28;20544;-73
2021/03/11 06:02:24;;;;;;;8.18;4.93;;;9.20;89.90;;;;;;5095024;28;20044;-73
2021/03/11 06:04:53;;;;;;;6.30;4.15;;;9.20;90.00;;;;;;5094892;28;20390;-74
2021/03/11 06:07:22;;;;;;;7.03;4.10;;;9.20;89.90;;;;;;5095109;28;20040;-73
2021/03/11 06:09:49;;;;;;;7.78;4.53;;;9.20;89.80;;;;;;5095008;28;20059;-73
2021/03/11 06:12:16;;;;;;;6.45;4.10;;;9.30;90.20;;;;;;5093805;28;20132;-74
2021/03/11 06:14:47;;;;;;;6.68;4.45;;;9.30;89.90;;;;;;5093989;28;20070;-73
2021/03/11 06:17:14;;;;;;;9.57;5.05;;;9.30;89.80;;;;;;5094304;28;20127;-74
2021/03/11 06:19:39;;;;;;;8.15;5.00;;;9.40;89.80;;;;;;5076132;28;20048;-74
2021/03/11 06:22:05;;;;;;;7.60;4.10;;;9.40;89.80;;;;;;5094202;28;20413;-73
2021/03/11 06:24:31;;;;;;;8.02;5.00;;;9.40;89.70;;;;;;5092944;28;20470;-73
2021/03/11 06:26:57;;;;;;;7.32;4.68;;;9.50;89.80;;;;;;5075078;28;20059;-73
2021/03/11 06:29:40;;;;;;;8.65;4.68;;;9.50;89.70;;;;;;5093581;28;20050;-73
2021/03/11 06:32:08;;;;;;;7.13;4.10;;;9.60;89.80;;;;;;5073676;28;20045;-74
2021/03/11 06:34:36;;;;;;;6.65;4.22;;;9.60;89.70;;;;;;5093760;28;20415;-73
2021/03/11 06:37:02;;;;;;;7.57;4.38;;;9.60;89.60;;;;;;5093707;28;20040;-72
2021/03/11 06:39:30;;;;;;;8.18;4.70;;;9.70;89.80;;;;;;5093798;28;20401;-73
2021/03/11 06:41:57;;;;;;;7.10;3.83;;;9.80;89.40;;;;;;5092771;28;20095;-73
2021/03/11 06:44:42;;;;;;;6.30;3.65;;;9.80;89.20;;;;;;5075331;28;20401;-73
2021/03/11 06:47:13;;;;;;;5.95;3.40;;;9.80;89.20;;;;;;5074356;28;20076;-74
2021/03/11 06:49:58;;;;;;;6.70;3.72;;;9.90;89.20;;;;;;5094623;28;20040;-73
2021/03/11 06:52:25;;;;;;;7.07;4.07;;;9.90;89.20;;;;;;5094327;28;20044;-73
2021/03/11 06:54:52;;;;;;;6.95;3.95;;;9.90;89.10;;;;;;5042547;28;20042;-73
2021/03/11 06:57:33;;;;;;;8.23;4.90;;;9.90;89.00;;;;;;5075551;28;20095;-74
2021/03/11 07:00:00;;;;;;;8.73;4.40;;;9.90;89.00;;;;;;5075954;28;20082;-73
2021/03/11 07:02:28;;;;;;;8.20;4.50;;;9.90;89.00;;;;;;5076389;28;20092;-73
2021/03/11 07:04:55;;;;;;;7.07;4.30;;;10.00;89.10;;;;;;5093610;28;20069;-73
2021/03/11 07:07:23;;;;;;;6.35;4.18;;;10.00;89.10;;;;;;5073607;28;20123;-73
2021/03/11 07:09:50;;;;;;;7.22;3.70;;;10.00;89.00;;;;;;5094227;28;20493;-74
2021/03/11 07:12:16;;;;;;;7.43;3.72;;;10.00;89.00;;;;;;5091807;28;20063;-73
2021/03/11 07:14:42;;;;;;;8.32;3.78;;;10.10;89.00;;;;;;5091157;28;20048;-74
2021/03/11 07:17:24;;;;;;;7.15;3.47;;;10.20;89.00;;;;;;5073618;28;20036;-73
2021/03/11 07:20:11;;;;;;;5.82;3.20;;;10.30;88.80;;;;;;5091662;28;20110;-73
2021/03/11 07:22:37;;;;;;;5.68;3.22;;;10.30;89.20;;;;;;5073963;28;20036;-72
2021/03/11 07:25:23;;;;;;;6.80;3.25;;;10.40;88.30;;;;;;5092624;28;20135;-72
2021/03/11 07:27:50;;;;;;;5.53;3.05;;;10.50;87.80;;;;;;5091972;28;20040;-72
2021/03/11 07:30:16;;;;;;;6.50;3.08;;;10.50;87.40;;;;;;5091851;28;20028;-72
2021/03/11 07:32:42;;;;;;;7.30;3.40;;;10.60;87.20;;;;;;5073097;28;20037;-73
2021/03/11 07:35:08;;;;;;;7.38;3.13;;;10.70;86.80;;;;;;5071238;28;20553;-73
2021/03/11 07:37:39;;;;;;;6.28;2.85;;;10.60;86.40;;;;;;5073979;28;20040;-74
2021/03/11 07:40:06;;;;;;;8.23;2.85;;;10.70;86.20;;;;;;5092030;28;20051;-74
2021/03/11 07:42:32;;;;;;;6.40;2.42;;;10.70;86.20;;;;;;5092076;28;20044;-72
2021/03/11 07:44:58;;;;;;;4.10;2.20;;;10.70;86.20;;;;;;5091788;28;20039;-72
2021/03/11 07:47:25;;;;;;;5.85;2.65;;;10.70;86.30;;;;;;5091945;28;20047;-73
2021/03/11 07:49:51;;;;;;;6.70;2.47;;;10.80;86.30;;;;;;5091789;28;20535;-72
2021/03/11 07:52:17;;;;;;;5.15;2.63;;;10.80;86.20;;;;;;5091732;28;20036;-72
2021/03/11 07:54:43;;;;;;;4.57;2.28;;;10.80;86.00;;;;;;5091499;28;20067;-72
2021/03/11 07:57:09;;;;;;;6.05;2.58;;;10.80;86.00;;;;;;5069422;28;20491;-72
2021/03/11 07:59:35;;;;;;;3.70;2.10;;;10.80;86.00;;;;;;5091544;28;20040;-73
2021/03/11 08:02:10;;;;;;;5.40;2.40;;;10.80;85.90;;;;;;5091892;28;20119;-73
2021/03/11 08:04:41;;;;;;;5.65;2.08;;;10.90;85.90;;;;;;5094375;28;20048;-74
2021/03/11 08:07:22;;;;;;;4.80;1.90;;;10.90;85.80;;;;;;5097914;28;20068;-75
2021/03/11 08:09:53;;;;;;;3.33;1.83;;;11.00;85.70;;;;;;5096094;28;20550;-74
2021/03/11 08:12:37;;;;;;;4.72;2.03;;;11.00;85.60;;;;;;5096034;28;20123;-72
2021/03/11 08:15:32;;;;;;;5.70;2.03;;;11.10;85.50;;;;;;5095752;28;20438;-75
2021/03/11 08:17:58;;;;;;;7.95;2.20;;;11.20;85.10;;;;;;5094878;28;20524;-73
2021/03/11 08:20:40;;;;;;;5.70;1.83;;;11.20;84.70;;;;;;5096042;28;20123;-74
2021/03/11 08:23:07;;;;;;;6.05;2.35;;;11.40;84.20;;;;;;5094974;28;20040;-74
2021/03/11 08:25:41;;;;;;;4.55;1.98;;;11.40;83.80;;;;;;5095213;28;20092;-73
2021/03/11 08:28:36;;;;;;;7.20;2.13;;;11.50;83.30;;;;;;5094616;28;20051;-73
2021/03/11 08:31:04;;;;;;;7.80;2.17;;;11.60;82.80;;;;;;5080182;28;20032;-73
2021/03/11 08:33:46;;;;;;;5.55;2.03;;;11.70;82.00;;;;;;5094914;28;20070;-73
2021/03/11 08:36:25;;;;;;;7.18;2.40;;;11.80;81.20;;;;;;5094621;28;20043;-73
2021/03/11 08:38:51;;;;;;;9.85;2.78;;;11.80;80.30;;;;;;5094404;28;20402;-73
2021/03/11 08:41:26;;;;;;;6.70;1.88;;;11.90;79.30;;;;;;5094885;28;20040;-74
2021/03/11 08:43:52;;;;;;;7.82;2.00;;;11.90;78.90;;;;;;5095317;28;20066;-72
2021/03/11 08:46:22;;;;;;;6.70;2.00;;;11.90;78.80;;;;;;5094161;28;20044;-71
2021/03/11 08:48:53;;;;;;;6.03;1.75;;;11.90;78.70;;;;;;5094156;28;20066;-73
2021/03/11 08:51:39;;;;;;;6.82;2.40;;;12.00;78.30;;;;;;5094577;28;20047;-73
2021/03/11 08:54:09;;;;;;;10.32;2.70;;;12.00;77.40;;;;;;5079283;28;20039;-74
2021/03/11 08:56:39;;;;;;;7.72;2.10;;;12.10;76.50;;;;;;5094353;28;20126;-72
2021/03/11 08:59:15;;;;;;;8.90;2.33;;;12.10;76.30;;;;;;5091642;28;20038;-73
2021/03/11 09:01:44;;;;;;;8.68;2.47;;;12.10;76.20;;;;;;5094296;28;20289;-73
2021/03/11 09:04:39;;;;;;;13.40;2.50;;;12.10;76.10;;;;;;5094812;28;20047;-74
2021/03/11 09:07:11;;;;;;;8.40;2.33;;;12.20;75.80;;;;;;5082351;28;20040;-74
2021/03/11 09:09:48;;;;;;;8.13;2.28;;;12.20;75.50;;;;;;5094750;28;20401;-73
2021/03/11 09:12:16;;;;;;;9.38;2.10;;;12.30;75.30;;;;;;5094987;28;20036;-74
2021/03/11 09:14:45;;;;;;;10.90;2.72;;;12.20;75.30;;;;;;5077018;28;20124;-72
2021/03/11 09:17:15;;;;;;;12.98;3.47;;;12.30;75.10;;;;;;5074739;28;20040;-72
2021/03/11 09:19:44;;;;;;;18.48;4.03;;;12.30;74.80;;;;;;5076379;28;20032;-73
2021/03/11 09:22:41;;;;;;;14.88;3.42;;;12.40;73.50;;;;;;5075145;28;20513;-73
2021/03/11 09:25:12;;;;;;;14.10;3.88;;;12.40;72.90;;;;;;5060332;28;20046;-72
2021/03/11 09:27:55;;;;;;;11.05;3.20;;;12.40;72.50;;;;;;5914306;22;20168;-76
2021/03/11 09:30:30;;;;;;;13.02;3.55;;;12.50;72.10;;;;;;5035836;28;20125;-77
2021/03/11 09:32:56;;;;;;;14.48;3.58;;;12.50;71.30;;;;;;5041172;28;20101;-78
2021/03/11 09:35:26;;;;;;;15.68;4.03;;;12.60;71.10;;;;;;5039408;28;20048;-79
2021/03/11 09:38:08;;;;;;;17.48;3.80;;;12.60;70.70;;;;;;4998487;28;20041;-78
2021/03/11 09:40:39;;;;;;;12.65;3.90;;;12.60;70.10;;;;;;5055273;28;20049;-78
2021/03/11 09:43:15;;;;;;;15.43;4.20;;;12.60;69.80;;;;;;5031323;28;20059;-80
2021/03/11 09:45:59;;;;;;;12.15;3.95;;;12.70;68.70;;;;;;5040434;28;20033;-76
2021/03/11 09:48:29;;;;;;;14.50;3.88;;;12.70;68.60;;;;;;5042440;28;20037;-77
2021/03/11 09:51:05;;;;;;;13.93;3.58;;;12.60;68.10;;;;;;5022828;28;20045;-79
2021/03/11 09:53:36;;;;;;;16.20;3.83;;;12.60;68.10;;;;;;5006733;28;20034;-79
2021/03/11 09:56:09;;;;;;;12.88;3.78;;;12.60;68.10;;;;;;5007297;28;20045;-80
2021/03/11 09:58:44;;;;;;;8.77;2.80;;;12.60;67.80;;;;;;5007812;28;20057;-80
2021/03/11 10:01:10;;;;;;;12.50;3.00;;;12.60;68.00;;;;;;5004483;28;20057;-79
2021/03/11 10:03:41;;;;;;;9.68;2.97;;;12.60;67.90;;;;;;5015995;28;20076;-78
2021/03/11 10:06:07;;;;;;;;;;;12.50;68.00;;;;;;4994691;28;20054;-79
2021/03/11 10:08:38;;;;;;;15.15;3.53;;;12.50;68.30;;;;;;4999543;28;20288;-81
2021/03/11 10:11:16;;;;;;;14.18;3.85;;;12.40;68.20;;;;;;4982974;28;20042;-79
2021/03/11 10:13:48;;;;;;;12.63;3.33;;;12.40;67.90;;;;;;4998445;28;20046;-80
2021/03/11 10:16:15;;;;;;;11.40;3.30;;;12.40;68.10;;;;;;4996618;28;20034;-79
2021/03/11 10:19:00;;;;;;;12.85;3.17;;;12.30;68.10;;;;;;4995254;28;20053;-78
2021/03/11 10:21:26;;;;;;;14.40;3.75;;;12.30;68.20;;;;;;4995716;28;20077;-77
2021/03/11 10:23:51;;;;;;;12.20;3.25;;;12.30;68.10;;;;;;4997776;28;20037;-78
2021/03/11 10:26:24;;;;;;;12.98;3.70;;;12.40;68.00;;;;;;4998634;28;20426;-77
2021/03/11 10:28:59;;;;;;;11.93;3.20;;;12.30;67.80;;;;;;4994331;28;20041;-77
2021/03/11 10:31:26;;;;;;;11.80;2.75;;;12.40;68.00;;;;;;5028699;28;20038;-75
2021/03/11 10:34:05;;;;;;;12.85;3.28;;;12.40;67.90;;;;;;5016037;28;20045;-77
2021/03/11 10:36:32;;;;;;;18.10;4.07;;;12.30;67.90;;;;;;5021860;28;20049;-76
2021/03/11 10:39:04;;;;;;;11.82;3.80;;;12.30;67.50;;;;;;5032451;28;20092;-76
2021/03/11 10:41:31;;;;;;;13.45;3.60;;;12.30;67.50;;;;;;5032164;28;20042;-76
2021/03/11 10:44:15;;;;;;;13.40;3.00;;;12.30;67.60;;;;;;5035259;28;20049;-78
2021/03/11 10:46:42;;;;;;;11.52;3.35;;;12.30;67.70;;;;;;5036647;28;20047;-78
2021/03/11 10:49:11;;;;;;;15.60;3.92;;;12.40;67.70;;;;;;5032719;28;20037;-78
2021/03/11 10:51:37;;;;;;;12.93;3.78;;;12.40;67.60;;;;;;5054289;28;20052;-77
2021/03/11 10:54:03;;;;;;;12.38;3.65;;;12.40;67.70;;;;;;5052515;28;20032;-78
2021/03/11 10:56:29;;;;;;;13.60;3.45;;;12.40;67.70;;;;;;5050572;28;20056;-77
2021/03/11 10:59:06;;;;;;;9.15;2.92;;;12.40;67.60;;;;;;5033218;28;20116;-78
2021/03/11 11:01:33;;;;;;;13.23;3.17;;;12.40;67.80;;;;;;5036663;28;20053;-78
2021/03/11 11:04:00;;;;;;;9.98;3.40;;;12.30;67.90;;;;;;5034199;28;20029;-77
2021/03/11 11:06:29;;;;;;;13.75;3.58;;;12.10;68.30;;;;;;5054481;28;20166;-76
2021/03/11 11:08:55;;;;;;;15.10;3.85;;;12.00;68.80;;;;;;5039422;28;20044;-77
2021/03/11 11:11:21;;;;;;;13.48;3.92;;;11.60;70.50;;;;;;5037315;28;20052;-76
2021/03/11 11:13:48;;;;;;;17.70;4.25;;;11.40;72.00;;;;;;5058087;28;20044;-77
2021/03/11 11:16:16;;;;;;;14.30;3.85;;;11.40;72.10;;;;;;5036909;28;20025;-76
2021/03/11 11:18:42;;;;;;;16.33;4.05;;;11.50;71.90;;;;;;5039615;28;20041;-78
2021/03/11 11:21:09;;;;;;;15.70;3.80;;;11.70;71.20;;;;;;5058118;28;20040;-76
2021/03/11 11:23:35;;;;;;;12.90;3.20;;;11.70;70.50;;;;;;5058200;28;20041;-77
2021/03/11 11:26:02;;;;;;;11.07;3.00;;;11.90;70.20;;;;;;5024550;28;20042;-77
2021/03/11 11:28:27;;;;;;;15.55;3.30;;;12.00;69.80;;;;;;5032342;28;20077;-80
2021/03/11 11:30:54;;;;;;;14.32;3.50;;;12.10;69.30;;;;;;5032516;28;20048;-77
2021/03/11 11:33:19;;;;;;;11.15;3.20;;;12.10;68.60;;;;;;5055176;28;20449;-77
2021/03/11 11:35:45;;;;;;;12.80;3.15;;;12.10;68.10;;;;;;5031844;28;20049;-77
2021/03/11 11:38:11;;;;;;;12.90;3.10;;;12.20;68.00;;;;;;5053388;28;20045;-77
2021/03/11 11:40:37;;;;;;;12.40;2.80;;;12.30;67.90;;;;;;5058258;28;20087;-77
2021/03/11 11:43:03;;;;;;;14.55;3.83;;;12.20;67.80;;;;;;5053865;28;20126;-78
2021/03/11 11:45:30;;;;;;;11.55;2.90;;;12.40;67.80;;;;;;5035343;28;20042;-78
2021/03/11 11:47:56;;;;;;;14.73;3.00;;;12.30;67.60;;;;;;5038157;28;20135;-79
2021/03/11 11:50:22;;;;;;;11.70;3.45;;;12.30;67.30;;;;;;5038309;28;20080;-77
2021/03/11 11:52:47;;;;;;;17.15;3.08;;;12.30;67.10;;;;;;5055568;28;20036;-78
2021/03/11 11:55:13;;;;;;;11.43;3.00;;;12.30;66.90;;;;;;5036988;28;20112;-77
2021/03/11 11:57:40;;;;;;;10.48;3.20;;;12.20;66.90;;;;;;5060011;28;20048;-76
2021/03/11 12:00:10;;;;;;;11.63;3.17;;;12.20;67.50;;;;;;5040372;28;20064;-80
2021/03/11 12:02:36;;;;;;;17.63;3.25;;;12.30;66.80;;;;;;5040024;28;20037;-77
2021/03/11 12:05:02;;;;;;;16.38;3.70;;;12.30;66.90;;;;;;5062654;28;20402;-77
2021/03/11 12:07:28;;;;;;;12.20;3.00;;;12.30;66.60;;;;;;5021874;28;20029;-77
2021/03/11 12:09:55;;;;;;;13.98;3.35;;;12.30;66.50;;;;;;5034487;28;20037;-74
2021/03/11 12:12:21;;;;;;;11.55;3.13;;;12.30;65.90;;;;;;5058497;28;20479;-77
2021/03/11 12:14:47;;;;;;;14.60;3.10;;;12.30;65.80;;;;;;5061865;28;20049;-76
2021/03/11 12:17:12;;;;;;;11.48;3.08;;;12.40;65.90;;;;;;5055783;28;20076;-78
2021/03/11 12:19:38;;;;;;;12.90;3.03;;;12.30;66.10;;;;;;5041835;28;20221;-76
2021/03/11 12:22:04;;;;;;;13.40;3.47;;;12.30;66.10;;;;;;5060393;28;20047;-76
2021/03/11 12:24:30;;;;;;;9.27;2.70;;;12.30;65.80;;;;;;5039761;28;20097;-77
2021/03/11 12:26:56;;;;;;;11.38;3.22;;;12.40;65.80;;;;;;5056114;28;20083;-76
2021/03/11 12:29:22;;;;;;;12.90;3.10;;;12.30;65.50;;;;;;5034741;28;20041;-77
2021/03/11 12:31:48;;;;;;;11.15;2.63;;;12.30;66.20;;;;;;5004362;28;20045;-77
2021/03/11 12:34:15;;;;;;;12.80;2.63;;;12.30;65.50;;;;;;5034800;28;20076;-74
2021/03/11 12:36:41;;;;;;;11.95;2.95;;;12.40;65.10;;;;;;5034038;28;20048;-77
2021/03/11 12:39:07;;;;;;;12.18;2.60;;;12.40;65.00;;;;;;5054461;28;20037;-77
2021/03/11 12:41:33;;;;;;;11.52;2.70;;;12.40;65.10;;;;;;5035343;28;20045;-77
2021/03/11 12:43:59;;;;;;;10.27;2.83;;;12.50;65.20;;;;;;5057203;28;20048;-77
2021/03/11 12:46:26;;;;;;;8.05;2.28;;;12.50;65.10;;;;;;5034606;28;20040;-77
2021/03/11 12:48:52;;;;;;;11.35;2.78;;;12.60;65.00;;;;;;5036391;28;20041;-76
2021/03/11 12:51:20;;;;;;;12.45;2.75;;;12.70;65.00;;;;;;5060004;28;20029;-77
2021/03/11 12:53:46;;;;;;;11.15;2.90;;;12.70;64.90;;;;;;5060743;28;20574;-79
2021/03/11 12:56:12;;;;;;;9.50;2.78;;;12.80;65.00;;;;;;5034297;28;20502;-75
2021/03/11 12:58:37;;;;;;;10.45;2.58;;;12.90;64.80;;;;;;5032455;28;20037;-76